Time,TemperatureF,DewpointF,PressureIn,WindDirection,WindDirectionDegrees,WindSpeedMPH,WindSpeedGustMPH,Humidity,HourlyPrecipIn,Conditions,Clouds,dailyrainin,SoftwareType,DateUTC
2013-07-02 00:00:00,78.9,62.9,29.75,WSW,248,0.0,0.0,58,0.00,,,0.00,WeatherCatV1.15B25,2013-07-02 07:00:00,
2013-07-02 00:05:00,79.8,62.7,29.75,WSW,248,0.0,0.0,56,0.00,,,0.00,WeatherCatV1.15B25,2013-07-02 07:05:00,
2013-07-02 00:10:00,79.8,62.7,29.75,WSW,248,0.0,0.0,56,0.00,,,0.00,WeatherCatV1.15B25,2013-07-02 07:10:00,
2013-07-02 00:15:00,79.8,62.7,29.75,WSW,248,0.0,0.0,56,0.00,,,0.00,WeatherCatV1.15B25,2013-07-02 07:15:00,
2013-07-02 00:20:00,79.8,62.7,29.75,WSW,248,0.0,0.0,56,0.00,,,0.00,WeatherCatV1.15B25,2013-07-02 07:20:00,
2013-07-02 00:25:00,79.8,62.7,29.75,WSW,248,0.0,0.0,56,0.00,,,0.00,WeatherCatV1.15B25,2013-07-02 07:25:00,
2013-07-02 00:30:00,79.8,62.7,29.75,WSW,248,0.0,0.0,56,0.00,,,0.00,WeatherCatV1.15B25,2013-07-02 07:30:00,
2013-07-02 00:35:00,79.8,62.7,29.75,WSW,248,0.0,0.0,56,0.00,,,0.00,WeatherCatV1.15B25,2013-07-02 07:35:00,
2013-07-02 00:40:00,79.8,62.7,29.75,WSW,248,0.0,0.0,56,0.00,,,0.00,WeatherCatV1.15B25,2013-07-02 07:40:00,
2013-07-02 00:45:00,79.8,62.7,29.75,WSW,248,0.0,0.0,56,0.00,,,0.00,WeatherCatV1.15B25,2013-07-02 07:45:00,
2013-07-02 00:50:00,79.8,62.7,29.75,WSW,248,0.0,0.0,56,0.00,,,0.00,WeatherCatV1.15B25,2013-07-02 07:50:00,
2013-07-02 00:55:00,79.8,62.7,29.75,WSW,248,0.0,0.0,56,0.00,,,0.00,WeatherCatV1.15B25,2013-07-02 07:55:00,
2013-07-02 01:00:00,79.8,62.7,29.75,WSW,248,0.0,0.0,56,0.00,,,0.00,WeatherCatV1.15B25,2013-07-02 08:00:00,
2013-07-02 01:05:00,79.6,61.5,29.74,WSW,248,0.0,0.0,54,0.00,,,0.00,WeatherCatV1.15B25,2013-07-02 08:05:00,
2013-07-02 01:10:00,79.6,61.5,29.74,WSW,248,0.0,0.0,54,0.00,,,0.00,WeatherCatV1.15B25,2013-07-02 08:10:00,
2013-07-02 01:15:00,79.6,61.5,29.74,WSW,248,0.0,0.0,54,0.00,,,0.00,WeatherCatV1.15B25,2013-07-02 08:15:00,
2013-07-02 01:20:00,79.6,61.5,29.74,WSW,248,0.0,0.0,54,0.00,,,0.00,WeatherCatV1.15B25,2013-07-02 08:20:00,
2013-07-02 01:25:00,79.6,61.5,29.74,WSW,248,0.0,0.0,54,0.00,,,0.00,WeatherCatV1.15B25,2013-07-02 08:25:00,
2013-07-02 01:30:00,79.6,61.5,29.74,WSW,248,0.0,0.0,54,0.00,,,0.00,WeatherCatV1.15B25,2013-07-02 08:30:00,
2013-07-02 01:35:00,79.6,61.5,29.74,WSW,248,0.0,0.0,54,0.00,,,0.00,WeatherCatV1.15B25,2013-07-02 08:35:00,
2013-07-02 01:40:00,79.6,61.5,29.74,WSW,248,0.0,0.0,54,0.00,,,0.00,WeatherCatV1.15B25,2013-07-02 08:40:00,
2013-07-02 01:45:00,79.6,61.5,29.74,WSW,248,0.0,0.0,54,0.00,,,0.00,WeatherCatV1.15B25,2013-07-02 08:45:00,
2013-07-02 01:50:00,79.6,61.5,29.74,WSW,248,0.0,0.0,54,0.00,,,0.00,WeatherCatV1.15B25,2013-07-02 08:50:00,
2013-07-02 01:55:00,79.6,61.5,29.74,WSW,248,0.0,0.0,54,0.00,,,0.00,WeatherCatV1.15B25,2013-07-02 08:55:00,
2013-07-02 02:00:00,79.6,61.5,29.74,WSW,248,0.0,0.0,54,0.00,,,0.00,WeatherCatV1.15B25,2013-07-02 09:00:00,
2013-07-02 02:05:00,77.4,61.9,29.74,WSW,248,0.0,0.0,59,0.00,,,0.00,WeatherCatV1.15B25,2013-07-02 09:05:00,
2013-07-02 02:10:00,77.4,61.9,29.74,WSW,248,0.0,0.0,59,0.00,,,0.00,WeatherCatV1.15B25,2013-07-02 09:10:00,
2013-07-02 02:15:00,77.4,61.9,29.74,WSW,248,0.0,0.0,59,0.00,,,0.00,WeatherCatV1.15B25,2013-07-02 09:15:00,
2013-07-02 02:20:00,77.4,61.9,29.74,WSW,248,0.0,0.0,59,0.00,,,0.00,WeatherCatV1.15B25,2013-07-02 09:20:00,
2013-07-02 02:25:00,77.4,61.9,29.74,WSW,248,0.0,0.0,59,0.00,,,0.00,WeatherCatV1.15B25,2013-07-02 09:25:00,
2013-07-02 02:30:00,77.4,61.9,29.74,WSW,248,0.0,0.0,59,0.00,,,0.00,WeatherCatV1.15B25,2013-07-02 09:30:00,
2013-07-02 02:35:00,77.4,61.9,29.74,WSW,248,0.0,0.0,59,0.00,,,0.00,WeatherCatV1.15B25,2013-07-02 09:35:00,
2013-07-02 02:40:00,77.4,61.9,29.74,WSW,248,0.0,0.0,59,0.00,,,0.00,WeatherCatV1.15B25,2013-07-02 09:40:00,
2013-07-02 02:45:00,77.4,61.9,29.74,WSW,248,0.0,0.0,59,0.00,,,0.00,WeatherCatV1.15B25,2013-07-02 09:45:00,
2013-07-02 02:50:00,77.4,61.9,29.74,WSW,248,0.0,0.0,59,0.00,,,0.00,WeatherCatV1.15B25,2013-07-02 09:50:00,
2013-07-02 02:55:00,77.4,61.9,29.74,WSW,248,0.0,0.0,59,0.00,,,0.00,WeatherCatV1.15B25,2013-07-02 09:55:00,
2013-07-02 03:00:00,77.4,61.9,29.74,WSW,248,0.0,0.0,59,0.00,,,0.00,WeatherCatV1.15B25,2013-07-02 10:00:00,
2013-07-02 03:05:00,78.1,62.1,29.73,WSW,248,0.0,0.0,58,0.00,,,0.00,WeatherCatV1.15B25,2013-07-02 10:05:00,
2013-07-02 03:10:00,78.1,62.1,29.73,WSW,248,0.0,0.0,58,0.00,,,0.00,WeatherCatV1.15B25,2013-07-02 10:10:00,
2013-07-02 03:15:00,78.1,62.1,29.73,WSW,248,0.0,0.0,58,0.00,,,0.00,WeatherCatV1.15B25,2013-07-02 10:15:00,
2013-07-02 03:20:00,78.1,62.1,29.73,WSW,248,0.0,0.0,58,0.00,,,0.00,WeatherCatV1.15B25,2013-07-02 10:20:00,
2013-07-02 03:25:00,78.1,62.1,29.73,WSW,248,0.0,0.0,58,0.00,,,0.00,WeatherCatV1.15B25,2013-07-02 10:25:00,
2013-07-02 03:30:00,78.1,62.1,29.73,WSW,248,0.0,0.0,58,0.00,,,0.00,WeatherCatV1.15B25,2013-07-02 10:30:00,
2013-07-02 03:35:00,78.1,62.1,29.73,WSW,248,0.0,0.0,58,0.00,,,0.00,WeatherCatV1.15B25,2013-07-02 10:35:00,
2013-07-02 03:40:00,78.1,62.1,29.73,WSW,248,0.0,0.0,58,0.00,,,0.00,WeatherCatV1.15B25,2013-07-02 10:40:00,
2013-07-02 03:45:00,78.1,62.1,29.73,WSW,248,0.0,0.0,58,0.00,,,0.00,WeatherCatV1.15B25,2013-07-02 10:45:00,
2013-07-02 03:50:00,78.1,62.1,29.73,WSW,248,0.0,0.0,58,0.00,,,0.00,WeatherCatV1.15B25,2013-07-02 10:50:00,
2013-07-02 03:55:00,78.1,62.1,29.73,WSW,248,0.0,0.0,58,0.00,,,0.00,WeatherCatV1.15B25,2013-07-02 10:55:00,
2013-07-02 04:00:00,78.1,62.1,29.73,WSW,248,0.0,0.0,58,0.00,,,0.00,WeatherCatV1.15B25,2013-07-02 11:00:00,
2013-07-02 04:05:00,75.3,63.1,29.71,WSW,248,0.0,0.0,66,0.00,,,0.00,WeatherCatV1.15B25,2013-07-02 11:05:00,
2013-07-02 04:10:00,75.3,63.1,29.71,WSW,248,0.0,0.0,66,0.00,,,0.00,WeatherCatV1.15B25,2013-07-02 11:10:00,
2013-07-02 04:15:00,75.3,63.1,29.71,WSW,248,0.0,0.0,66,0.00,,,0.00,WeatherCatV1.15B25,2013-07-02 11:15:00,
2013-07-02 04:20:00,75.3,63.1,29.71,WSW,248,0.0,0.0,66,0.00,,,0.00,WeatherCatV1.15B25,2013-07-02 11:20:00,
2013-07-02 04:25:00,75.3,63.1,29.71,WSW,248,0.0,0.0,66,0.00,,,0.00,WeatherCatV1.15B25,2013-07-02 11:25:00,
2013-07-02 04:30:00,75.3,63.1,29.71,WSW,248,0.0,0.0,66,0.00,,,0.00,WeatherCatV1.15B25,2013-07-02 11:30:00,
2013-07-02 04:35:00,75.3,63.1,29.71,WSW,248,0.0,0.0,66,0.00,,,0.00,WeatherCatV1.15B25,2013-07-02 11:35:00,
2013-07-02 04:40:00,75.3,63.1,29.71,WSW,248,0.0,0.0,66,0.00,,,0.00,WeatherCatV1.15B25,2013-07-02 11:40:00,
2013-07-02 04:45:00,75.3,63.1,29.71,WSW,248,0.0,0.0,66,0.00,,,0.00,WeatherCatV1.15B25,2013-07-02 11:45:00,
2013-07-02 04:50:00,75.3,63.1,29.71,WSW,248,0.0,0.0,66,0.00,,,0.00,WeatherCatV1.15B25,2013-07-02 11:50:00,
2013-07-02 04:55:00,75.3,63.1,29.71,WSW,248,0.0,0.0,66,0.00,,,0.00,WeatherCatV1.15B25,2013-07-02 11:55:00,
2013-07-02 05:00:00,75.3,63.1,29.71,WSW,248,0.0,0.0,66,0.00,,,0.00,WeatherCatV1.15B25,2013-07-02 12:00:00,
2013-07-02 05:05:00,74.7,59.9,29.70,WSW,248,0.0,0.0,60,0.00,,,0.00,WeatherCatV1.15B25,2013-07-02 12:05:00,
2013-07-02 05:10:00,74.7,59.9,29.70,WSW,248,0.0,0.0,60,0.00,,,0.00,WeatherCatV1.15B25,2013-07-02 12:10:00,
2013-07-02 05:15:00,74.7,59.9,29.70,WSW,248,0.0,0.0,60,0.00,,,0.00,WeatherCatV1.15B25,2013-07-02 12:15:00,
2013-07-02 05:20:00,74.7,59.9,29.70,WSW,248,0.0,0.0,60,0.00,,,0.00,WeatherCatV1.15B25,2013-07-02 12:20:00,
2013-07-02 05:25:00,74.7,59.9,29.70,WSW,248,0.0,0.0,60,0.00,,,0.00,WeatherCatV1.15B25,2013-07-02 12:25:00,
2013-07-02 05:30:00,74.7,59.9,29.70,WSW,248,0.0,0.0,60,0.00,,,0.00,WeatherCatV1.15B25,2013-07-02 12:30:00,
2013-07-02 05:35:00,74.7,59.9,29.70,WSW,248,0.0,0.0,60,0.00,,,0.00,WeatherCatV1.15B25,2013-07-02 12:35:00,
2013-07-02 05:40:00,74.7,59.9,29.70,WSW,248,0.0,0.0,60,0.00,,,0.00,WeatherCatV1.15B25,2013-07-02 12:40:00,
2013-07-02 05:45:00,74.7,59.9,29.70,WSW,248,0.0,0.0,60,0.00,,,0.00,WeatherCatV1.15B25,2013-07-02 12:45:00,
2013-07-02 05:50:00,74.7,59.9,29.70,WSW,248,0.0,0.0,60,0.00,,,0.00,WeatherCatV1.15B25,2013-07-02 12:50:00,
2013-07-02 05:55:00,74.7,59.9,29.70,WSW,248,0.0,0.0,60,0.00,,,0.00,WeatherCatV1.15B25,2013-07-02 12:55:00,
2013-07-02 06:00:00,74.7,59.9,29.70,WSW,248,0.0,0.0,60,0.00,,,0.00,WeatherCatV1.15B25,2013-07-02 13:00:00,
2013-07-02 06:05:00,73.7,61.6,29.69,WSW,248,0.0,0.0,66,0.00,,,0.00,WeatherCatV1.15B25,2013-07-02 13:05:00,
2013-07-02 06:10:00,73.7,61.6,29.69,WSW,248,0.0,0.0,66,0.00,,,0.00,WeatherCatV1.15B25,2013-07-02 13:10:00,
2013-07-02 06:15:00,73.7,61.6,29.69,WSW,248,0.0,0.0,66,0.00,,,0.00,WeatherCatV1.15B25,2013-07-02 13:15:00,
2013-07-02 06:20:00,73.7,61.6,29.69,WSW,248,0.0,0.0,66,0.00,,,0.00,WeatherCatV1.15B25,2013-07-02 13:20:00,
2013-07-02 06:25:00,73.7,61.6,29.69,WSW,248,0.0,0.0,66,0.00,,,0.00,WeatherCatV1.15B25,2013-07-02 13:25:00,
2013-07-02 06:30:00,73.7,61.6,29.69,WSW,248,0.0,0.0,66,0.00,,,0.00,WeatherCatV1.15B25,2013-07-02 13:30:00,
2013-07-02 06:35:00,73.7,61.6,29.69,WSW,248,0.0,0.0,66,0.00,,,0.00,WeatherCatV1.15B25,2013-07-02 13:35:00,
2013-07-02 06:40:00,73.7,61.6,29.69,WSW,248,0.0,0.0,66,0.00,,,0.00,WeatherCatV1.15B25,2013-07-02 13:40:00,
2013-07-02 06:45:00,73.7,61.6,29.69,WSW,248,0.0,0.0,66,0.00,,,0.00,WeatherCatV1.15B25,2013-07-02 13:45:00,
2013-07-02 06:50:00,73.7,61.6,29.69,WSW,248,0.0,0.0,66,0.00,,,0.00,WeatherCatV1.15B25,2013-07-02 13:50:00,
2013-07-02 06:55:00,73.7,61.6,29.69,WSW,248,0.0,0.0,66,0.00,,,0.00,WeatherCatV1.15B25,2013-07-02 13:55:00,
2013-07-02 07:09:00,73.7,61.6,29.69,WSW,248,0.0,0.0,66,0.00,,,0.00,WeatherCatV1.15B25,2013-07-02 14:09:00,
2013-07-02 07:14:00,79.4,56.8,29.70,ENE,69,0.0,0.0,46,0.00,,,0.00,WeatherCatV1.15B25,2013-07-02 14:14:00,
2013-07-02 07:19:00,79.3,57.9,29.71,ENE,70,0.0,0.0,48,0.00,,,0.00,WeatherCatV1.15B25,2013-07-02 14:19:00,
2013-07-02 07:24:00,78.7,61.7,29.71,ENE,70,0.0,0.0,56,0.00,,,0.00,WeatherCatV1.15B25,2013-07-02 14:24:00,
2013-07-02 07:29:00,78.3,58.1,29.71,ENE,69,0.0,0.0,50,0.00,,,0.00,WeatherCatV1.15B25,2013-07-02 14:29:00,
2013-07-02 07:34:00,78.6,58.9,29.71,ENE,70,0.0,0.0,51,0.00,,,0.00,WeatherCatV1.15B25,2013-07-02 14:34:00,
2013-07-02 07:39:00,78.4,61.9,29.71,ENE,69,0.0,0.0,57,0.00,,,0.00,WeatherCatV1.15B25,2013-07-02 14:39:00,
2013-07-02 07:44:00,77.7,61.2,29.72,East,86,0.0,0.0,57,0.00,,,0.00,WeatherCatV1.15B25,2013-07-02 14:44:00,
2013-07-02 07:49:00,77.7,61.7,29.71,East,85,0.0,0.0,58,0.00,,,0.00,WeatherCatV1.15B25,2013-07-02 14:49:00,
2013-07-02 07:54:00,78.0,62.0,29.71,East,84,0.0,0.0,58,0.00,,,0.00,WeatherCatV1.15B25,2013-07-02 14:54:00,
2013-07-02 07:59:00,78.3,61.8,29.71,East,85,0.0,0.0,57,0.00,,,0.00,WeatherCatV1.15B25,2013-07-02 14:59:00,
2013-07-02 08:04:00,78.6,62.6,29.71,East,84,0.0,0.0,58,0.00,,,0.00,WeatherCatV1.15B25,2013-07-02 15:04:00,
2013-07-02 08:09:00,78.9,61.8,29.72,East,86,0.0,0.0,56,0.00,,,0.00,WeatherCatV1.15B25,2013-07-02 15:09:00,
2013-07-02 08:14:00,79.3,62.2,29.72,East,86,0.0,0.0,56,0.00,,,0.00,WeatherCatV1.15B25,2013-07-02 15:14:00,
2013-07-02 08:19:00,79.6,62.0,29.72,East,86,0.0,0.0,55,0.00,,,0.00,WeatherCatV1.15B25,2013-07-02 15:19:00,
2013-07-02 08:24:00,79.9,62.3,29.72,East,84,0.0,0.0,55,0.00,,,0.00,WeatherCatV1.15B25,2013-07-02 15:24:00,
2013-07-02 08:29:00,80.3,63.7,29.73,East,85,0.0,0.0,57,0.00,,,0.00,WeatherCatV1.15B25,2013-07-02 15:29:00,
2013-07-02 08:34:00,80.7,63.0,29.73,East,85,0.0,0.0,55,0.00,,,0.00,WeatherCatV1.15B25,2013-07-02 15:34:00,
2013-07-02 08:39:00,81.0,62.2,29.73,East,84,0.0,0.0,53,0.00,,,0.00,WeatherCatV1.15B25,2013-07-02 15:39:00,
2013-07-02 08:44:00,81.6,61.7,29.73,East,84,0.0,0.0,51,0.00,,,0.00,WeatherCatV1.15B25,2013-07-02 15:44:00,
2013-07-02 08:49:00,82.3,64.0,29.73,East,85,0.0,0.0,54,0.00,,,0.00,WeatherCatV1.15B25,2013-07-02 15:49:00,
2013-07-02 08:54:00,82.5,63.1,29.73,East,84,0.0,0.0,52,0.00,,,0.00,WeatherCatV1.15B25,2013-07-02 15:54:00,
2013-07-02 08:59:00,82.8,62.8,29.73,East,84,0.0,0.0,51,0.00,,,0.00,WeatherCatV1.15B25,2013-07-02 15:59:00,
2013-07-02 09:04:00,83.3,64.9,29.73,East,85,0.0,0.0,54,0.00,,,0.00,WeatherCatV1.15B25,2013-07-02 16:04:00,
2013-07-02 09:09:00,83.8,65.3,29.74,East,84,0.0,0.0,54,0.00,,,0.00,WeatherCatV1.15B25,2013-07-02 16:09:00,
2013-07-02 09:14:00,84.4,66.4,29.74,East,85,0.0,0.0,55,0.00,,,0.00,WeatherCatV1.15B25,2013-07-02 16:14:00,
2013-07-02 09:19:00,84.9,66.4,29.74,East,85,0.0,0.0,54,0.00,,,0.00,WeatherCatV1.15B25,2013-07-02 16:19:00,
2013-07-02 09:24:00,85.6,66.5,29.74,East,85,0.0,0.0,53,0.00,,,0.00,WeatherCatV1.15B25,2013-07-02 16:24:00,
2013-07-02 09:29:00,86.1,66.9,29.74,East,85,0.0,0.0,53,0.00,,,0.00,WeatherCatV1.15B25,2013-07-02 16:29:00,
2013-07-02 09:34:00,85.9,67.3,29.75,SE,124,0.0,0.0,54,0.00,,,0.00,WeatherCatV1.15B25,2013-07-02 16:34:00,
2013-07-02 09:39:00,85.8,67.2,29.74,SE,127,0.0,0.0,54,0.00,,,0.00,WeatherCatV1.15B25,2013-07-02 16:39:00,
2013-07-02 09:45:00,86.2,65.9,29.75,SSW,193,0.0,0.0,51,0.00,,,0.00,WeatherCatV1.15B25,2013-07-02 16:45:00,
2013-07-02 09:50:00,86.4,60.6,29.75,West,274,0.0,0.0,42,0.00,,,0.00,WeatherCatV1.15B25,2013-07-02 16:50:00,
2013-07-02 09:55:00,86.7,62.8,29.75,South,170,0.0,0.0,45,0.00,,,0.00,WeatherCatV1.15B25,2013-07-02 16:55:00,
2013-07-02 10:00:00,86.9,61.7,29.75,SW,218,0.0,0.0,43,0.00,,,0.00,WeatherCatV1.15B25,2013-07-02 17:00:00,
2013-07-02 10:05:00,87.3,60.7,29.75,SE,124,0.0,0.0,41,0.00,,,0.00,WeatherCatV1.15B25,2013-07-02 17:05:00,
2013-07-02 10:10:00,87.6,62.3,29.75,SW,232,0.0,0.0,43,0.00,,,0.00,WeatherCatV1.15B25,2013-07-02 17:10:00,
2013-07-02 10:15:00,88.0,61.3,29.75,SW,226,0.0,4.0,41,0.00,,,0.00,WeatherCatV1.15B25,2013-07-02 17:15:00,
2013-07-02 10:20:00,88.4,63.0,29.75,SW,221,0.0,0.0,43,0.00,,,0.00,WeatherCatV1.15B25,2013-07-02 17:20:00,
2013-07-02 10:25:00,89.1,60.1,29.75,ESE,116,0.0,3.0,38,0.00,,,0.00,WeatherCatV1.15B25,2013-07-02 17:25:00,
2013-07-02 10:30:00,89.8,60.8,29.75,South,185,0.0,0.0,38,0.00,,,0.00,WeatherCatV1.15B25,2013-07-02 17:30:00,
2013-07-02 10:35:00,90.6,60.7,29.75,East,101,0.0,0.0,37,0.00,,,0.00,WeatherCatV1.15B25,2013-07-02 17:35:00,
2013-07-02 10:40:00,91.1,61.9,29.74,ESE,115,0.0,0.0,38,0.00,,,0.00,WeatherCatV1.15B25,2013-07-02 17:40:00,
2013-07-02 10:45:00,92.2,62.9,29.75,ESE,115,0.0,0.0,38,0.00,,,0.00,WeatherCatV1.15B25,2013-07-02 17:45:00,
2013-07-02 10:50:00,93.5,65.5,29.75,NW,316,0.0,0.0,40,0.00,,,0.00,WeatherCatV1.15B25,2013-07-02 17:50:00,
2013-07-02 10:55:00,93.6,61.8,29.75,SSE,155,0.0,1.0,35,0.00,,,0.00,WeatherCatV1.15B25,2013-07-02 17:55:00,
2013-07-02 11:00:00,93.8,62.7,29.75,South,170,0.0,0.0,36,0.00,,,0.00,WeatherCatV1.15B25,2013-07-02 18:00:00,
2013-07-02 11:05:00,94.7,61.9,29.75,SE,141,0.0,1.0,34,0.00,,,0.00,WeatherCatV1.15B25,2013-07-02 18:05:00,
2013-07-02 11:10:00,95.0,63.0,29.76,SW,226,0.0,0.0,35,0.00,,,0.00,WeatherCatV1.15B25,2013-07-02 18:10:00,
2013-07-02 11:15:00,94.9,61.2,29.76,SE,139,0.0,0.0,33,0.00,,,0.00,WeatherCatV1.15B25,2013-07-02 18:15:00,
2013-07-02 11:20:00,95.2,63.2,29.76,SE,146,0.0,0.0,35,0.00,,,0.00,WeatherCatV1.15B25,2013-07-02 18:20:00,
2013-07-02 11:25:00,95.7,61.9,29.76,SSW,203,0.0,0.0,33,0.00,,,0.00,WeatherCatV1.15B25,2013-07-02 18:25:00,
2013-07-02 11:30:00,96.5,62.6,29.76,ESE,117,0.0,0.0,33,0.00,,,0.00,WeatherCatV1.15B25,2013-07-02 18:30:00,
2013-07-02 11:35:00,96.7,62.8,29.76,WSW,243,0.0,0.0,33,0.00,,,0.00,WeatherCatV1.15B25,2013-07-02 18:35:00,
2013-07-02 11:40:00,95.6,65.1,29.76,WSW,252,0.0,0.0,37,0.00,,,0.00,WeatherCatV1.15B25,2013-07-02 18:40:00,
2013-07-02 11:45:00,95.4,60.8,29.76,SE,141,0.0,0.0,32,0.00,,,0.00,WeatherCatV1.15B25,2013-07-02 18:45:00,
2013-07-02 11:50:00,96.1,61.4,29.76,SE,129,0.0,0.0,32,0.00,,,0.00,WeatherCatV1.15B25,2013-07-02 18:50:00,
2013-07-02 11:55:00,96.7,61.0,29.76,SE,127,0.0,0.0,31,0.00,,,0.00,WeatherCatV1.15B25,2013-07-02 18:55:00,
2013-07-02 12:00:00,96.6,61.8,29.76,WSW,252,0.0,0.0,32,0.00,,,0.00,WeatherCatV1.15B25,2013-07-02 19:00:00,
2013-07-02 12:05:00,96.8,61.1,29.76,NW,325,1.0,2.0,31,0.00,,,0.00,WeatherCatV1.15B25,2013-07-02 19:05:00,
2013-07-02 12:10:00,96.8,62.0,29.76,WSW,255,0.0,0.0,32,0.00,,,0.00,WeatherCatV1.15B25,2013-07-02 19:10:00,
2013-07-02 12:15:00,97.1,61.4,29.76,East,95,0.0,0.0,31,0.00,,,0.00,WeatherCatV1.15B25,2013-07-02 19:15:00,
2013-07-02 12:20:00,97.6,62.7,29.76,SE,124,0.0,0.0,32,0.00,,,0.00,WeatherCatV1.15B25,2013-07-02 19:20:00,
2013-07-02 12:25:00,98.4,62.5,29.76,SW,228,0.0,0.0,31,0.00,,,0.00,WeatherCatV1.15B25,2013-07-02 19:25:00,
2013-07-02 12:30:00,98.4,62.5,29.76,SSW,200,0.0,0.0,31,0.00,,,0.00,WeatherCatV1.15B25,2013-07-02 19:30:00,
2013-07-02 12:35:00,99.2,62.2,29.76,SE,143,0.0,0.0,30,0.00,,,0.00,WeatherCatV1.15B25,2013-07-02 19:35:00,
2013-07-02 12:40:00,100.1,63.0,29.76,SW,236,0.0,0.0,30,0.00,,,0.00,WeatherCatV1.15B25,2013-07-02 19:40:00,
2013-07-02 12:45:00,100.8,62.6,29.76,WSW,246,0.0,0.0,29,0.00,,,0.00,WeatherCatV1.15B25,2013-07-02 19:45:00,
2013-07-02 12:50:00,101.2,64.0,29.76,SE,134,0.0,0.0,30,0.00,,,0.00,WeatherCatV1.15B25,2013-07-02 19:50:00,
2013-07-02 12:55:00,100.9,64.6,29.76,SW,233,0.0,0.0,31,0.00,,,0.00,WeatherCatV1.15B25,2013-07-02 19:55:00,
2013-07-02 13:00:00,100.3,62.2,29.75,SW,229,0.0,0.0,29,0.00,,,0.00,WeatherCatV1.15B25,2013-07-02 20:00:00,
2013-07-02 13:05:00,101.2,64.0,29.75,SE,130,0.0,0.0,30,0.00,,,0.00,WeatherCatV1.15B25,2013-07-02 20:05:00,
2013-07-02 13:10:00,101.5,64.2,29.75,West,273,0.0,0.0,30,0.00,,,0.00,WeatherCatV1.15B25,2013-07-02 20:10:00,
2013-07-02 13:15:00,100.7,60.5,29.75,SSW,192,0.0,0.0,27,0.00,,,0.00,WeatherCatV1.15B25,2013-07-02 20:15:00,
2013-07-02 13:20:00,100.6,62.5,29.75,NW,307,0.0,0.0,29,0.00,,,0.00,WeatherCatV1.15B25,2013-07-02 20:20:00,
2013-07-02 13:25:00,100.8,62.6,29.75,SW,218,0.0,0.0,29,0.00,,,0.00,WeatherCatV1.15B25,2013-07-02 20:25:00,
2013-07-02 13:30:00,100.8,61.7,29.75,WNW,287,0.0,0.0,28,0.00,,,0.00,WeatherCatV1.15B25,2013-07-02 20:30:00,
2013-07-02 13:35:00,100.9,64.6,29.75,SW,235,0.0,0.0,31,0.00,,,0.00,WeatherCatV1.15B25,2013-07-02 20:35:00,
2013-07-02 13:40:00,100.7,61.6,29.75,WSW,255,0.0,0.0,28,0.00,,,0.00,WeatherCatV1.15B25,2013-07-02 20:40:00,
2013-07-02 13:45:00,100.9,62.7,29.75,West,269,0.0,0.0,29,0.00,,,0.00,WeatherCatV1.15B25,2013-07-02 20:45:00,
2013-07-02 13:50:00,100.7,64.5,29.75,SSW,211,0.0,0.0,31,0.00,,,0.00,WeatherCatV1.15B25,2013-07-02 20:50:00,
2013-07-02 13:55:00,101.3,61.0,29.75,SW,219,0.0,0.0,27,0.00,,,0.00,WeatherCatV1.15B25,2013-07-02 20:55:00,
2013-07-02 14:00:00,102.1,62.8,29.75,SW,232,0.0,0.0,28,0.00,,,0.00,WeatherCatV1.15B25,2013-07-02 21:00:00,
2013-07-02 14:05:00,100.8,65.5,29.75,WSW,255,0.0,0.0,32,0.00,,,0.00,WeatherCatV1.15B25,2013-07-02 21:05:00,
2013-07-02 14:10:00,100.9,62.7,29.75,SE,129,0.0,0.0,29,0.00,,,0.00,WeatherCatV1.15B25,2013-07-02 21:10:00,
2013-07-02 14:15:00,100.9,63.7,29.75,West,264,0.0,0.0,30,0.00,,,0.00,WeatherCatV1.15B25,2013-07-02 21:15:00,
2013-07-02 14:20:00,100.3,64.1,29.75,SW,231,0.0,1.0,31,0.00,,,0.00,WeatherCatV1.15B25,2013-07-02 21:20:00,
2013-07-02 14:25:00,99.2,62.2,29.75,West,267,0.0,2.0,30,0.00,,,0.00,WeatherCatV1.15B25,2013-07-02 21:25:00,
2013-07-02 14:30:00,98.7,62.7,29.75,West,263,1.0,1.0,31,0.00,,,0.00,WeatherCatV1.15B25,2013-07-02 21:30:00,
2013-07-02 14:35:00,98.6,64.4,29.75,West,266,0.0,0.0,33,0.00,,,0.00,WeatherCatV1.15B25,2013-07-02 21:35:00,
2013-07-02 14:40:00,98.5,62.6,29.75,West,278,1.0,2.0,31,0.00,,,0.00,WeatherCatV1.15B25,2013-07-02 21:40:00,
2013-07-02 14:45:00,97.9,63.0,29.75,West,267,0.0,0.0,32,0.00,,,0.00,WeatherCatV1.15B25,2013-07-02 21:45:00,
2013-07-02 14:50:00,98.0,63.9,29.75,West,271,0.0,0.0,33,0.00,,,0.00,WeatherCatV1.15B25,2013-07-02 21:50:00,
2013-07-02 14:55:00,98.1,64.0,29.75,West,266,0.0,0.0,33,0.00,,,0.00,WeatherCatV1.15B25,2013-07-02 21:55:00,
2013-07-02 15:00:00,98.4,64.3,29.74,West,260,0.0,0.0,33,0.00,,,0.00,WeatherCatV1.15B25,2013-07-02 22:00:00,
2013-07-02 15:06:00,98.9,63.8,29.74,NNW,336,0.0,0.0,32,0.00,,,0.00,WeatherCatV1.15B25,2013-07-02 22:06:00,
2013-07-02 15:11:00,98.7,62.7,29.74,West,262,0.0,0.0,31,0.00,,,0.00,WeatherCatV1.15B25,2013-07-02 22:11:00,
2013-07-02 15:16:00,98.8,61.9,29.74,SE,141,0.0,0.0,30,0.00,,,0.00,WeatherCatV1.15B25,2013-07-02 22:16:00,
2013-07-02 15:21:00,98.9,62.9,29.74,West,264,0.0,0.0,31,0.00,,,0.00,WeatherCatV1.15B25,2013-07-02 22:21:00,
2013-07-02 15:26:00,99.1,62.2,29.74,ESE,122,0.0,0.0,30,0.00,,,0.00,WeatherCatV1.15B25,2013-07-02 22:26:00,
2013-07-02 15:31:00,99.4,61.5,29.74,SSE,151,0.0,0.0,29,0.00,,,0.00,WeatherCatV1.15B25,2013-07-02 22:31:00,
2013-07-02 15:36:00,99.5,63.4,29.74,West,277,0.0,0.0,31,0.00,,,0.00,WeatherCatV1.15B25,2013-07-02 22:36:00,
2013-07-02 15:41:00,99.0,63.9,29.74,WSW,256,0.0,0.0,32,0.00,,,0.00,WeatherCatV1.15B25,2013-07-02 22:41:00,
2013-07-02 15:46:00,99.1,64.0,29.74,West,267,0.0,0.0,32,0.00,,,0.00,WeatherCatV1.15B25,2013-07-02 22:46:00,
2013-07-02 15:51:00,98.9,63.8,29.74,West,274,0.0,0.0,32,0.00,,,0.00,WeatherCatV1.15B25,2013-07-02 22:51:00,
2013-07-02 15:56:00,99.0,63.0,29.74,SE,129,0.0,0.0,31,0.00,,,0.00,WeatherCatV1.15B25,2013-07-02 22:56:00,
2013-07-02 16:01:00,99.2,62.2,29.74,WSW,250,0.0,0.0,30,0.00,,,0.00,WeatherCatV1.15B25,2013-07-02 23:01:00,
2013-07-02 16:06:00,99.4,61.5,29.74,West,270,0.0,0.0,29,0.00,,,0.00,WeatherCatV1.15B25,2013-07-02 23:06:00,
2013-07-02 16:11:00,98.7,64.5,29.74,West,260,0.0,0.0,33,0.00,,,0.00,WeatherCatV1.15B25,2013-07-02 23:11:00,
2013-07-02 16:16:00,98.2,63.2,29.74,WSW,253,0.0,0.0,32,0.00,,,0.00,WeatherCatV1.15B25,2013-07-02 23:16:00,
2013-07-02 16:21:00,97.8,62.9,29.74,WNW,284,0.0,0.0,32,0.00,,,0.00,WeatherCatV1.15B25,2013-07-02 23:21:00,
2013-07-02 16:26:00,97.8,62.9,29.74,West,262,0.0,0.0,32,0.00,,,0.00,WeatherCatV1.15B25,2013-07-02 23:26:00,
2013-07-02 16:31:00,98.0,63.9,29.74,SW,229,0.0,0.0,33,0.00,,,0.00,WeatherCatV1.15B25,2013-07-02 23:31:00,
2013-07-02 16:36:00,97.8,62.9,29.74,WSW,249,0.0,0.0,32,0.00,,,0.00,WeatherCatV1.15B25,2013-07-02 23:36:00,
2013-07-02 16:41:00,97.8,62.9,29.74,WSW,240,0.0,0.0,32,0.00,,,0.00,WeatherCatV1.15B25,2013-07-02 23:41:00,
2013-07-02 16:46:00,98.1,64.0,29.75,ESE,120,0.0,0.0,33,0.00,,,0.00,WeatherCatV1.15B25,2013-07-02 23:46:00,
2013-07-02 16:51:00,98.5,62.6,29.74,East,96,0.0,0.0,31,0.00,,,0.00,WeatherCatV1.15B25,2013-07-02 23:51:00,
2013-07-02 16:56:00,98.9,62.0,29.75,SE,124,0.0,0.0,30,0.00,,,0.00,WeatherCatV1.15B25,2013-07-02 23:56:00,
2013-07-02 17:01:00,99.2,62.2,29.74,SW,219,0.0,0.0,30,0.00,,,0.00,WeatherCatV1.15B25,2013-07-03 00:01:00,
2013-07-02 17:06:00,99.1,65.7,29.74,SSW,212,0.0,0.0,34,0.00,,,0.00,WeatherCatV1.15B25,2013-07-03 00:06:00,
2013-07-02 17:11:00,98.7,61.8,29.74,ESE,122,0.0,0.0,30,0.00,,,0.00,WeatherCatV1.15B25,2013-07-03 00:11:00,
2013-07-02 17:16:00,98.7,61.8,29.74,WSW,243,0.0,0.0,30,0.00,,,0.00,WeatherCatV1.15B25,2013-07-03 00:16:00,
2013-07-02 17:21:00,98.8,61.9,29.74,SW,229,0.0,0.0,30,0.00,,,0.00,WeatherCatV1.15B25,2013-07-03 00:21:00,
2013-07-02 17:26:00,98.5,62.6,29.74,West,269,0.0,0.0,31,0.00,,,0.00,WeatherCatV1.15B25,2013-07-03 00:26:00,
2013-07-02 17:31:00,98.1,61.3,29.74,SW,225,2.0,2.0,30,0.00,,,0.00,WeatherCatV1.15B25,2013-07-03 00:31:00,
2013-07-02 17:36:00,97.4,63.4,29.75,West,264,0.0,0.0,33,0.00,,,0.00,WeatherCatV1.15B25,2013-07-03 00:36:00,
2013-07-02 17:41:00,97.1,62.3,29.75,West,259,0.0,0.0,32,0.00,,,0.00,WeatherCatV1.15B25,2013-07-03 00:41:00,
2013-07-02 17:46:00,96.6,60.0,29.75,WSW,256,0.0,1.0,30,0.00,,,0.00,WeatherCatV1.15B25,2013-07-03 00:46:00,
2013-07-02 17:51:00,95.9,60.3,29.74,WSW,252,0.0,0.0,31,0.00,,,0.00,WeatherCatV1.15B25,2013-07-03 00:51:00,
2013-07-02 17:56:00,95.6,60.1,29.74,West,259,0.0,0.0,31,0.00,,,0.00,WeatherCatV1.15B25,2013-07-03 00:56:00,
2013-07-02 18:01:00,95.4,61.7,29.74,West,263,0.0,0.0,33,0.00,,,0.00,WeatherCatV1.15B25,2013-07-03 01:01:00,
2013-07-02 18:06:00,95.4,62.5,29.74,West,262,0.0,0.0,34,0.00,,,0.00,WeatherCatV1.15B25,2013-07-03 01:06:00,
2013-07-02 18:11:00,95.4,61.7,29.75,SE,145,0.0,0.0,33,0.00,,,0.00,WeatherCatV1.15B25,2013-07-03 01:11:00,
2013-07-02 18:16:00,95.4,61.7,29.75,SE,146,0.0,0.0,33,0.00,,,0.00,WeatherCatV1.15B25,2013-07-03 01:16:00,
2013-07-02 18:21:00,95.4,61.7,29.75,SE,145,0.0,0.0,33,0.00,,,0.00,WeatherCatV1.15B25,2013-07-03 01:21:00,
2013-07-02 18:26:00,94.9,62.1,29.75,SE,144,0.0,0.0,34,0.00,,,0.00,WeatherCatV1.15B25,2013-07-03 01:26:00,
2013-07-02 18:37:00,94.1,61.4,29.75,SE,143,0.0,0.0,34,0.00,,,0.00,WeatherCatV1.15B25,2013-07-03 01:37:00,
2013-07-02 18:42:00,93.7,60.2,29.75,SE,143,0.0,0.0,33,0.00,,,0.00,WeatherCatV1.15B25,2013-07-03 01:42:00,
2013-07-02 18:47:00,93.2,60.6,29.75,SE,144,0.0,0.0,34,0.00,,,0.00,WeatherCatV1.15B25,2013-07-03 01:47:00,
2013-07-02 18:52:00,92.8,61.9,29.75,SE,144,0.0,0.0,36,0.00,,,0.00,WeatherCatV1.15B25,2013-07-03 01:52:00,
2013-07-02 18:57:00,92.5,62.4,29.75,SE,144,0.0,0.0,37,0.00,,,0.00,WeatherCatV1.15B25,2013-07-03 01:57:00,
2013-07-02 19:02:00,92.2,62.1,29.75,SE,143,0.0,0.0,37,0.00,,,0.00,WeatherCatV1.15B25,2013-07-03 02:02:00,
2013-07-02 19:07:00,92.0,63.4,29.76,SE,143,0.0,0.0,39,0.00,,,0.00,WeatherCatV1.15B25,2013-07-03 02:07:00,
2013-07-02 19:12:00,91.9,64.8,29.76,SE,144,0.0,0.0,41,0.00,,,0.00,WeatherCatV1.15B25,2013-07-03 02:12:00,
2013-07-02 19:17:00,91.7,63.9,29.76,SE,144,0.0,0.0,40,0.00,,,0.00,WeatherCatV1.15B25,2013-07-03 02:17:00,
2013-07-02 19:22:00,91.4,63.6,29.76,SE,143,0.0,0.0,40,0.00,,,0.00,WeatherCatV1.15B25,2013-07-03 02:22:00,
2013-07-02 19:28:00,91.1,63.4,29.76,SE,143,0.0,0.0,40,0.00,,,0.00,WeatherCatV1.15B25,2013-07-03 02:28:00,
2013-07-02 19:33:00,90.9,64.6,29.76,SE,144,0.0,0.0,42,0.00,,,0.00,WeatherCatV1.15B25,2013-07-03 02:33:00,
2013-07-02 19:38:00,90.8,67.1,29.76,SE,143,0.0,0.0,46,0.00,,,0.00,WeatherCatV1.15B25,2013-07-03 02:38:00,
2013-07-02 19:43:00,90.2,67.8,29.75,SE,144,0.0,0.0,48,0.00,,,0.00,WeatherCatV1.15B25,2013-07-03 02:43:00,
2013-07-02 19:48:00,89.7,66.7,29.76,SE,144,0.0,0.0,47,0.00,,,0.00,WeatherCatV1.15B25,2013-07-03 02:48:00,
2013-07-02 19:53:00,89.4,66.5,29.75,SE,144,0.0,0.0,47,0.00,,,0.00,WeatherCatV1.15B25,2013-07-03 02:53:00,
2013-07-02 19:58:00,89.2,66.9,29.75,SE,144,0.0,0.0,48,0.00,,,0.00,WeatherCatV1.15B25,2013-07-03 02:58:00,
2013-07-02 20:03:00,88.8,68.9,29.75,SE,144,0.0,0.0,52,0.00,,,0.00,WeatherCatV1.15B25,2013-07-03 03:03:00,
2013-07-02 20:08:00,87.7,66.1,29.75,SE,143,0.0,0.0,49,0.00,,,0.00,WeatherCatV1.15B25,2013-07-03 03:08:00,
2013-07-02 20:10:00,87.3,68.0,29.75,SE,144,0.0,0.0,53,0.00,,,0.00,WeatherCatV1.15B25,2013-07-03 03:10:00,
2013-07-02 20:15:00,86.5,68.9,29.76,SE,143,0.0,0.0,56,0.00,,,0.00,WeatherCatV1.15B25,2013-07-03 03:15:00,
2013-07-02 20:20:00,86.0,65.7,29.75,SE,143,0.0,0.0,51,0.00,,,0.00,WeatherCatV1.15B25,2013-07-03 03:20:00,
2013-07-02 20:25:00,86.2,68.1,29.75,SE,143,0.0,0.0,55,0.00,,,0.00,WeatherCatV1.15B25,2013-07-03 03:25:00,
2013-07-02 20:30:00,86.2,65.9,29.75,SE,132,0.0,0.0,51,0.00,,,0.00,WeatherCatV1.15B25,2013-07-03 03:30:00,
2013-07-02 20:35:00,86.4,64.4,29.75,SE,133,0.0,0.0,48,0.00,,,0.00,WeatherCatV1.15B25,2013-07-03 03:35:00,
2013-07-02 20:38:00,86.3,69.2,29.75,SE,133,0.0,0.0,57,0.00,,,0.00,WeatherCatV1.15B25,2013-07-03 03:38:00,
2013-07-02 20:43:00,85.5,65.8,29.75,SE,133,0.0,0.0,52,0.00,,,0.00,WeatherCatV1.15B25,2013-07-03 03:43:00,
2013-07-02 20:48:00,85.5,69.0,29.75,SE,132,0.0,0.0,58,0.00,,,0.00,WeatherCatV1.15B25,2013-07-03 03:48:00,
2013-07-02 20:49:00,85.5,69.0,29.75,SE,132,0.0,0.0,58,0.00,,,0.00,WeatherCatV1.15B25,2013-07-03 03:49:00,
2013-07-02 20:54:00,85.2,68.7,29.75,SE,133,0.0,0.0,58,0.00,,,0.00,WeatherCatV1.15B25,2013-07-03 03:54:00,
2013-07-02 20:59:00,84.7,68.3,29.75,SE,133,0.0,0.0,58,0.00,,,0.00,WeatherCatV1.15B25,2013-07-03 03:59:00,
2013-07-02 21:01:00,84.5,65.5,29.75,SE,133,0.0,0.0,53,0.00,,,0.00,WeatherCatV1.15B25,2013-07-03 04:01:00,
2013-07-02 21:06:00,84.4,64.8,29.75,SE,132,0.0,0.0,52,0.00,,,0.00,WeatherCatV1.15B25,2013-07-03 04:06:00,
2013-07-02 21:11:00,83.8,67.9,29.75,SE,132,0.0,0.0,59,0.00,,,0.00,WeatherCatV1.15B25,2013-07-03 04:11:00,
2013-07-02 21:16:00,83.1,67.7,29.75,SE,132,0.0,0.0,60,0.00,,,0.00,WeatherCatV1.15B25,2013-07-03 04:16:00,
2013-07-02 21:21:00,83.3,65.4,29.75,SE,132,0.0,0.0,55,0.00,,,0.00,WeatherCatV1.15B25,2013-07-03 04:21:00,
2013-07-02 21:26:00,83.7,65.8,29.75,SE,132,0.0,0.0,55,0.00,,,0.00,WeatherCatV1.15B25,2013-07-03 04:26:00,
2013-07-02 21:31:00,83.8,66.4,29.75,SE,132,0.0,0.0,56,0.00,,,0.00,WeatherCatV1.15B25,2013-07-03 04:31:00,
2013-07-02 21:36:00,83.5,66.1,29.75,SE,132,0.0,0.0,56,0.00,,,0.00,WeatherCatV1.15B25,2013-07-03 04:36:00,
2013-07-02 21:41:00,83.3,65.9,29.76,SE,132,0.0,0.0,56,0.00,,,0.00,WeatherCatV1.15B25,2013-07-03 04:41:00,
2013-07-02 21:46:00,83.2,66.9,29.76,SE,132,0.0,0.0,58,0.00,,,0.00,WeatherCatV1.15B25,2013-07-03 04:46:00,
2013-07-02 21:51:00,82.9,67.1,29.76,SE,132,0.0,0.0,59,0.00,,,0.00,WeatherCatV1.15B25,2013-07-03 04:51:00,
2013-07-02 21:56:00,82.1,66.8,29.76,SE,132,0.0,0.0,60,0.00,,,0.00,WeatherCatV1.15B25,2013-07-03 04:56:00,
2013-07-02 22:01:00,81.1,66.8,29.76,SE,132,0.0,0.0,62,0.00,,,0.00,WeatherCatV1.15B25,2013-07-03 05:01:00,
2013-07-02 22:06:00,81.2,66.9,29.76,SE,132,0.0,0.0,62,0.00,,,0.00,WeatherCatV1.15B25,2013-07-03 05:06:00,
2013-07-02 22:11:00,81.6,67.3,29.76,SE,133,0.0,0.0,62,0.00,,,0.00,WeatherCatV1.15B25,2013-07-03 05:11:00,
2013-07-02 22:16:00,81.5,66.7,29.76,SE,132,0.0,0.0,61,0.00,,,0.00,WeatherCatV1.15B25,2013-07-03 05:16:00,
2013-07-02 22:21:00,80.9,66.6,29.76,SE,132,0.0,0.0,62,0.00,,,0.00,WeatherCatV1.15B25,2013-07-03 05:21:00,
2013-07-02 22:26:00,81.0,67.2,29.76,SE,132,0.0,0.0,63,0.00,,,0.00,WeatherCatV1.15B25,2013-07-03 05:26:00,
2013-07-02 22:29:00,81.2,66.9,29.76,SE,132,0.0,0.0,62,0.00,,,0.00,WeatherCatV1.15B25,2013-07-03 05:29:00,
2013-07-02 22:34:00,81.4,66.6,29.76,SE,132,0.0,0.0,61,0.00,,,0.00,WeatherCatV1.15B25,2013-07-03 05:34:00,
2013-07-02 22:39:00,81.0,66.7,29.76,SE,132,0.0,0.0,62,0.00,,,0.00,WeatherCatV1.15B25,2013-07-03 05:39:00,
2013-07-02 22:44:00,79.9,66.6,29.76,SW,235,0.0,0.0,64,0.00,,,0.00,WeatherCatV1.15B25,2013-07-03 05:44:00,
2013-07-02 22:49:00,79.0,66.6,29.76,SW,235,0.0,0.0,66,0.00,,,0.00,WeatherCatV1.15B25,2013-07-03 05:49:00,
2013-07-02 22:54:00,79.0,67.1,29.76,SW,235,0.0,0.0,67,0.00,,,0.00,WeatherCatV1.15B25,2013-07-03 05:54:00,
2013-07-02 22:59:00,79.0,67.1,29.76,SW,236,0.0,0.0,67,0.00,,,0.00,WeatherCatV1.15B25,2013-07-03 05:59:00,
2013-07-02 23:04:00,79.0,67.5,29.76,SW,236,0.0,0.0,68,0.00,,,0.00,WeatherCatV1.15B25,2013-07-03 06:04:00,
2013-07-02 23:09:00,79.2,67.3,29.77,SW,236,0.0,0.0,67,0.00,,,0.00,WeatherCatV1.15B25,2013-07-03 06:09:00,
2013-07-02 23:14:00,79.0,66.6,29.77,WSW,242,0.0,0.0,66,0.00,,,0.00,WeatherCatV1.15B25,2013-07-03 06:14:00,
2013-07-02 23:16:00,78.4,66.5,29.77,WSW,242,0.0,0.0,67,0.00,,,0.00,WeatherCatV1.15B25,2013-07-03 06:16:00,
2013-07-02 23:20:00,78.0,67.0,29.77,WSW,241,0.0,0.0,69,0.00,,,0.00,WeatherCatV1.15B25,2013-07-03 06:20:00,
2013-07-02 23:21:00,77.9,66.9,29.77,WSW,242,0.0,0.0,69,0.00,,,0.00,WeatherCatV1.15B25,2013-07-03 06:21:00,
2013-07-02 23:26:00,78.1,67.5,29.77,East,92,0.0,0.0,70,0.00,,,0.00,WeatherCatV1.15B25,2013-07-03 06:26:00,
2013-07-02 23:31:00,78.6,67.6,29.77,East,93,0.0,0.0,69,0.00,,,0.00,WeatherCatV1.15B25,2013-07-03 06:31:00,
2013-07-02 23:36:00,78.4,66.9,29.77,East,94,0.0,0.0,68,0.00,,,0.00,WeatherCatV1.15B25,2013-07-03 06:36:00,
2013-07-02 23:41:00,78.0,67.0,29.77,East,91,0.0,0.0,69,0.00,,,0.00,WeatherCatV1.15B25,2013-07-03 06:41:00,
2013-07-02 23:46:00,77.9,66.9,29.77,East,94,0.0,0.0,69,0.00,,,0.00,WeatherCatV1.15B25,2013-07-03 06:46:00,
2013-07-02 23:51:00,78.0,67.0,29.77,East,92,0.0,0.0,69,0.00,,,0.00,WeatherCatV1.15B25,2013-07-03 06:51:00,
2013-07-02 23:56:00,78.1,66.7,29.77,East,94,0.0,0.0,68,0.00,,,0.00,WeatherCatV1.15B25,2013-07-03 06:56:00,